Time;durP1;ratioP1;P1;durP2;ratioP2;P2;SDS_P1;SDS_P2;PMS_P1;PMS_P2;Temp;Humidity;BMP_temperature;BMP_pressure;BME280_temperature;BME280_humidity;BME280_pressure;Samples;Min_cycle;Max_cycle;Signal;HPM_P1;HPM_P2
2024/02/15 00:01:52;;;;;;;33.60;14.77;;;;;;;;;;4993287;28;20050;-80
2024/02/15 00:04:20;;;;;;;30.58;11.50;;;;;;;;;;4992839;28;20046;-79
2024/02/15 00:06:47;;;;;;;53.45;27.23;;;;;;;;;;4993326;28;20050;-81
2024/02/15 00:09:14;;;;;;;67.22;37.58;;;;;;;;;;4992464;28;20061;-80
2024/02/15 00:11:41;;;;;;;80.82;43.25;;;;;;;;;;4993230;28;20049;-80
2024/02/15 00:14:08;;;;;;;79.57;48.30;;;;;;;;;;4992868;28;20066;-81
2024/02/15 00:16:38;;;;;;;90.40;54.33;;;;;;;;;;4992241;28;20046;-80
2024/02/15 00:19:06;;;;;;;124.38;66.68;;;;;;;;;;4992823;28;20157;-79
2024/02/15 00:21:35;;;;;;;205.23;95.50;;;;;;;;;;4993136;28;20043;-81
2024/02/15 00:24:01;;;;;;;91.67;44.57;;;;;;;;;;4993187;28;20047;-80
2024/02/15 00:26:28;;;;;;;51.42;22.08;;;;;;;;;;4991674;28;20767;-81
2024/02/15 00:28:55;;;;;;;77.13;18.55;;;;;;;;;;4993061;28;20124;-80
2024/02/15 00:31:23;;;;;;;364.58;22.23;;;;;;;;;;4992790;28;20101;-81
2024/02/15 00:33:49;;;;;;;371.48;25.23;;;;;;;;;;4993222;28;20444;-80
2024/02/15 00:36:17;;;;;;;383.08;20.88;;;;;;;;;;4992732;28;20101;-80
2024/02/15 00:38:45;;;;;;;99.25;12.48;;;;;;;;;;4993312;28;20101;-81
2024/02/15 00:41:12;;;;;;;35.42;14.45;;;;;;;;;;4994259;28;20072;-81
2024/02/15 00:43:39;;;;;;;47.17;19.52;;;;;;;;;;4996914;28;20038;-80
2024/02/15 00:46:06;;;;;;;44.70;18.80;;;;;;;;;;4996327;28;20296;-81
2024/02/15 00:48:32;;;;;;;41.55;17.65;;;;;;;;;;4996805;28;20038;-80
2024/02/15 00:50:59;;;;;;;46.90;16.98;;;;;;;;;;4996629;28;20536;-81
2024/02/15 00:53:26;;;;;;;41.65;15.73;;;;;;;;;;4996114;28;20043;-80
2024/02/15 00:55:53;;;;;;;34.45;13.73;;;;;;;;;;4996692;28;20042;-80
2024/02/15 00:58:21;;;;;;;31.73;11.38;;;;;;;;;;4995958;28;20050;-80
2024/02/15 01:00:48;;;;;;;22.75;8.75;;;;;;;;;;4995458;28;20034;-81
2024/02/15 01:03:16;;;;;;;26.00;7.47;;;;;;;;;;4996163;28;20046;-80
2024/02/15 01:05:42;;;;;;;25.42;7.15;;;;;;;;;;4996600;28;20053;-80
2024/02/15 01:08:10;;;;;;;29.83;6.80;;;;;;;;;;4995947;28;20042;-79
2024/02/15 01:10:37;;;;;;;20.00;5.90;;;;;;;;;;4996330;28;20053;-79
2024/02/15 01:13:04;;;;;;;19.25;5.22;;;;;;;;;;4996001;28;20066;-79
2024/02/15 01:15:31;;;;;;;17.92;5.35;;;;;;;;;;4996384;28;20058;-81
2024/02/15 01:17:57;;;;;;;14.05;5.03;;;;;;;;;;4996220;28;20050;-80
2024/02/15 01:20:24;;;;;;;19.00;4.90;;;;;;;;;;4995787;28;20058;-80
2024/02/15 01:22:51;;;;;;;21.80;4.10;;;;;;;;;;4995931;28;20389;-80
2024/02/15 01:25:18;;;;;;;19.98;4.80;;;;;;;;;;4995765;28;20043;-80
2024/02/15 01:27:45;;;;;;;24.38;4.40;;;;;;;;;;4996130;28;20054;-81
2024/02/15 01:30:12;;;;;;;19.73;4.90;;;;;;;;;;4995392;28;20042;-81
2024/02/15 01:32:41;;;;;;;18.17;4.97;;;;;;;;;;4996283;28;20482;-79
2024/02/15 01:35:09;;;;;;;14.25;4.25;;;;;;;;;;4995371;28;20038;-81
2024/02/15 01:37:36;;;;;;;19.38;5.32;;;;;;;;;;4978713;28;20134;-80
2024/02/15 01:40:06;;;;;;;17.17;4.45;;;;;;;;;;4995781;28;20042;-80
2024/02/15 01:42:33;;;;;;;13.30;3.70;;;;;;;;;;4995371;28;20052;-80
2024/02/15 01:45:00;;;;;;;13.15;4.10;;;;;;;;;;4995858;28;20046;-80
2024/02/15 01:47:27;;;;;;;12.85;3.30;;;;;;;;;;4995099;28;20386;-81
2024/02/15 01:49:54;;;;;;;11.48;3.70;;;;;;;;;;4995788;28;20042;-79
2024/02/15 01:52:21;;;;;;;15.88;3.47;;;;;;;;;;4993987;28;20145;-79
2024/02/15 01:54:51;;;;;;;14.95;3.90;;;;;;;;;;4978551;28;20034;-81
2024/02/15 01:57:20;;;;;;;13.52;3.70;;;;;;;;;;4994953;28;20034;-81
2024/02/15 01:59:51;;;;;;;14.48;4.10;;;;;;;;;;4995259;28;20046;-80
2024/02/15 02:02:20;;;;;;;23.15;4.95;;;;;;;;;;4994818;28;20129;-80
2024/02/15 02:04:47;;;;;;;18.70;4.50;;;;;;;;;;4995298;28;20038;-80
2024/02/15 02:07:14;;;;;;;19.00;4.65;;;;;;;;;;4994786;28;20045;-80
2024/02/15 02:09:41;;;;;;;17.00;4.47;;;;;;;;;;4995052;28;20425;-80
2024/02/15 02:12:09;;;;;;;18.13;4.40;;;;;;;;;;4994692;28;20394;-79
2024/02/15 02:14:35;;;;;;;20.67;4.40;;;;;;;;;;4995260;28;20393;-80
2024/02/15 02:17:15;;;;;;;18.88;4.68;;;;;;;;;;4994897;28;20050;-80
2024/02/15 02:19:43;;;;;;;22.58;5.55;;;;;;;;;;4994931;28;20135;-79
2024/02/15 02:22:11;;;;;;;16.98;5.10;;;;;;;;;;4994427;28;20050;-80
2024/02/15 02:25:03;;;;;;;18.67;4.95;;;;;;;;;;4995123;28;20061;-79
2024/02/15 02:27:32;;;;;;;13.48;3.90;;;;;;;;;;4993412;28;20404;-79
2024/02/15 02:29:59;;;;;;;;;;;;;;;;;;4995451;28;20062;-79
2024/02/15 02:32:27;;;;;;;20.95;4.78;;;;;;;;;;4994517;28;20365;-79
2024/02/15 02:34:57;;;;;;;19.02;4.80;;;;;;;;;;4994817;28;20046;-79
2024/02/15 02:37:24;;;;;;;18.70;4.30;;;;;;;;;;4994352;28;20077;-81
2024/02/15 02:39:51;;;;;;;16.52;4.68;;;;;;;;;;4994835;28;20038;-80
2024/02/15 02:42:18;;;;;;;16.23;5.00;;;;;;;;;;4993985;28;20052;-79
2024/02/15 02:44:45;;;;;;;18.02;4.20;;;;;;;;;;4994773;28;20065;-80
2024/02/15 02:47:11;;;;;;;14.85;4.28;;;;;;;;;;4994016;28;20373;-80
2024/02/15 02:49:38;;;;;;;13.05;3.97;;;;;;;;;;4994638;28;20053;-79
2024/02/15 02:52:05;;;;;;;14.40;4.00;;;;;;;;;;4994069;28;20473;-79
2024/02/15 02:54:33;;;;;;;16.58;4.55;;;;;;;;;;4994546;28;20528;-80
2024/02/15 02:57:00;;;;;;;20.10;4.55;;;;;;;;;;4993454;28;20378;-79
2024/02/15 02:59:27;;;;;;;19.77;4.75;;;;;;;;;;4993677;28;20434;-79
2024/02/15 03:01:56;;;;;;;17.40;4.95;;;;;;;;;;4994358;28;20046;-79
2024/02/15 03:04:23;;;;;;;24.45;4.60;;;;;;;;;;4993391;28;20485;-80
2024/02/15 03:06:51;;;;;;;16.85;4.72;;;;;;;;;;4994229;28;20050;-80
2024/02/15 03:09:18;;;;;;;15.75;4.30;;;;;;;;;;4993355;28;20390;-79
2024/02/15 03:11:45;;;;;;;16.80;4.65;;;;;;;;;;4994068;28;20544;-79
2024/02/15 03:14:13;;;;;;;16.90;4.45;;;;;;;;;;4993757;28;20125;-80
2024/02/15 03:16:39;;;;;;;16.83;4.50;;;;;;;;;;4994101;28;20042;-80
2024/02/15 03:19:09;;;;;;;14.98;4.32;;;;;;;;;;4993644;28;20053;-79
2024/02/15 03:21:35;;;;;;;20.48;4.68;;;;;;;;;;4993111;28;20455;-79
2024/02/15 03:24:03;;;;;;;19.88;5.25;;;;;;;;;;4993838;28;20050;-79
2024/02/15 03:26:38;;;;;;;15.48;4.32;;;;;;;;;;4993752;28;20093;-81
2024/02/15 03:29:07;;;;;;;17.77;4.80;;;;;;;;;;4993530;28;20477;-80
2024/02/15 03:31:36;;;;;;;19.35;4.88;;;;;;;;;;4976479;28;20544;-79
2024/02/15 03:34:06;;;;;;;12.38;4.22;;;;;;;;;;4993652;28;20038;-79
2024/02/15 03:36:33;;;;;;;13.00;4.78;;;;;;;;;;4993593;28;20057;-79
2024/02/15 03:39:00;;;;;;;15.68;4.00;;;;;;;;;;4993594;28;20039;-79
2024/02/15 03:41:32;;;;;;;14.38;3.72;;;;;;;;;;4993144;28;20125;-80
2024/02/15 03:44:00;;;;;;;18.27;4.40;;;;;;;;;;4993669;28;20053;-80
2024/02/15 03:46:27;;;;;;;17.67;5.07;;;;;;;;;;4992807;28;20050;-80
2024/02/15 03:48:54;;;;;;;13.98;4.57;;;;;;;;;;4993573;28;20173;-79
2024/02/15 03:51:23;;;;;;;20.08;4.32;;;;;;;;;;4993027;28;20062;-78
2024/02/15 03:53:51;;;;;;;14.43;4.05;;;;;;;;;;4993480;28;20050;-79
2024/02/15 03:56:21;;;;;;;17.67;4.55;;;;;;;;;;4975992;28;20046;-79
2024/02/15 03:58:50;;;;;;;17.40;4.88;;;;;;;;;;4993489;28;20065;-80
2024/02/15 04:01:17;;;;;;;;;;;;;;;;;;4993429;28;20053;-81
2024/02/15 04:03:44;;;;;;;15.75;4.90;;;;;;;;;;4993257;28;19925;-81
2024/02/15 04:06:11;;;;;;;20.20;5.30;;;;;;;;;;4992730;28;20046;-80
2024/02/15 04:08:38;;;;;;;21.45;4.68;;;;;;;;;;4993435;28;20385;-80
2024/02/15 04:11:07;;;;;;;18.50;4.68;;;;;;;;;;4992938;28;20054;-79
2024/02/15 04:13:34;;;;;;;22.17;5.13;;;;;;;;;;4993413;28;20051;-79
2024/02/15 04:16:00;;;;;;;18.95;4.80;;;;;;;;;;4977606;28;20061;-80
2024/02/15 04:18:31;;;;;;;18.88;4.43;;;;;;;;;;4997012;28;20065;-81
2024/02/15 04:20:58;;;;;;;13.98;4.47;;;;;;;;;;4997369;28;20058;-80
2024/02/15 04:23:25;;;;;;;11.77;3.95;;;;;;;;;;4996540;28;20057;-81
2024/02/15 04:25:52;;;;;;;11.63;3.97;;;;;;;;;;4996163;28;20366;-79
2024/02/15 04:28:19;;;;;;;19.25;4.72;;;;;;;;;;4979497;28;20363;-80
2024/02/15 04:30:48;;;;;;;17.38;4.45;;;;;;;;;;4997309;28;20397;-80
2024/02/15 04:33:15;;;;;;;15.73;4.63;;;;;;;;;;4996629;28;20071;-80
2024/02/15 04:35:43;;;;;;;18.25;4.75;;;;;;;;;;4997015;28;20125;-79
2024/02/15 04:38:10;;;;;;;13.18;3.83;;;;;;;;;;4996506;28;20057;-80
2024/02/15 04:40:38;;;;;;;12.43;3.75;;;;;;;;;;4996893;28;20050;-80
2024/02/15 04:43:06;;;;;;;18.67;4.63;;;;;;;;;;4996509;28;20402;-79
2024/02/15 04:45:33;;;;;;;19.25;4.63;;;;;;;;;;4979380;28;20045;-80
2024/02/15 04:48:01;;;;;;;13.35;3.58;;;;;;;;;;4996764;28;20039;-79
2024/02/15 04:50:29;;;;;;;11.75;4.05;;;;;;;;;;4995128;28;20421;-81
2024/02/15 04:52:56;;;;;;;14.68;3.90;;;;;;;;;;4996807;28;20396;-80
2024/02/15 04:55:22;;;;;;;20.40;4.55;;;;;;;;;;4996068;28;20041;-80
2024/02/15 04:57:54;;;;;;;15.15;4.25;;;;;;;;;;4996896;28;20046;-81
2024/02/15 05:00:23;;;;;;;15.70;4.47;;;;;;;;;;4995967;28;20046;-80
2024/02/15 05:02:52;;;;;;;11.57;4.05;;;;;;;;;;4996576;28;20038;-81
2024/02/15 05:05:20;;;;;;;14.48;4.80;;;;;;;;;;4996107;28;20133;-80
2024/02/15 05:07:48;;;;;;;18.33;4.43;;;;;;;;;;4996599;28;20093;-80
2024/02/15 05:10:16;;;;;;;18.50;4.70;;;;;;;;;;4978556;28;20073;-79
2024/02/15 05:12:42;;;;;;;12.15;3.70;;;;;;;;;;4996374;28;20046;-80
2024/02/15 05:15:11;;;;;;;11.93;3.92;;;;;;;;;;4995750;28;20104;-80
2024/02/15 05:17:43;;;;;;;16.95;4.07;;;;;;;;;;4996329;28;20051;-80
2024/02/15 05:20:11;;;;;;;12.18;3.70;;;;;;;;;;4995973;28;20046;-80
2024/02/15 05:22:40;;;;;;;17.50;4.65;;;;;;;;;;4996320;28;20053;-80
2024/02/15 05:25:10;;;;;;;17.88;4.93;;;;;;;;;;4995549;28;20482;-80
2024/02/15 05:27:39;;;;;;;18.25;4.32;;;;;;;;;;4996220;28;20144;-81
2024/02/15 05:30:06;;;;;;;15.57;5.45;;;;;;;;;;4995733;28;20359;-79
2024/02/15 05:32:41;;;;;;;14.00;4.20;;;;;;;;;;4996257;28;20108;-79
2024/02/15 05:35:10;;;;;;;16.15;4.47;;;;;;;;;;4995419;28;20050;-80
2024/02/15 05:37:38;;;;;;;18.35;4.70;;;;;;;;;;4996097;28;20046;-79
2024/02/15 05:40:06;;;;;;;16.00;4.50;;;;;;;;;;4995238;28;20042;-79
2024/02/15 05:42:33;;;;;;;15.70;4.47;;;;;;;;;;4994763;28;20050;-79
2024/02/15 05:45:32;;;;;;;15.02;4.47;;;;;;;;;;4995720;28;20441;-79
2024/02/15 05:48:00;;;;;;;16.02;4.50;;;;;;;;;;4994406;28;20042;-79
2024/02/15 05:50:29;;;;;;;23.52;4.38;;;;;;;;;;4995116;28;20118;-80
2024/02/15 05:52:58;;;;;;;24.63;5.75;;;;;;;;;;4995750;28;20039;-80
2024/02/15 05:55:26;;;;;;;18.67;5.03;;;;;;;;;;4962616;28;20141;-80
2024/02/15 05:57:53;;;;;;;15.88;4.53;;;;;;;;;;4994913;28;20124;-80
2024/02/15 06:00:21;;;;;;;16.50;5.15;;;;;;;;;;4994568;28;20039;-80
2024/02/15 06:02:49;;;;;;;20.02;5.43;;;;;;;;;;4995122;28;20049;-80
2024/02/15 06:05:17;;;;;;;16.52;4.70;;;;;;;;;;4994119;28;20421;-80
2024/02/15 06:07:46;;;;;;;15.60;4.72;;;;;;;;;;4977619;28;20053;-81
2024/02/15 06:10:14;;;;;;;19.05;4.75;;;;;;;;;;4994196;28;20473;-80
2024/02/15 06:12:42;;;;;;;17.63;4.28;;;;;;;;;;4994792;28;20046;-80
2024/02/15 06:15:14;;;;;;;19.92;5.07;;;;;;;;;;4993895;28;20422;-81
2024/02/15 06:17:46;;;;;;;18.33;5.22;;;;;;;;;;4993579;28;20043;-80
2024/02/15 06:20:14;;;;;;;20.17;5.32;;;;;;;;;;4994209;28;20097;-79
2024/02/15 06:22:41;;;;;;;17.13;5.60;;;;;;;;;;4994654;28;20394;-80
2024/02/15 06:25:08;;;;;;;24.52;6.88;;;;;;;;;;4976952;28;20050;-81
2024/02/15 06:27:40;;;;;;;28.88;7.40;;;;;;;;;;4993278;28;20466;-80
2024/02/15 06:41:33;;;;;;;21.55;6.53;;;;;;;;;;4951702;29;20114;-80
2024/02/15 06:43:59;;;;;;;25.23;6.00;;;;;;;;;;4953965;29;20075;-81
2024/02/15 06:46:26;;;;;;;15.45;6.28;;;;;;;;;;4952892;29;20083;-80
2024/02/15 06:48:54;;;;;;;20.90;5.93;;;;;;;;;;4953625;29;20494;-81
2024/02/15 06:51:21;;;;;;;19.27;6.55;;;;;;;;;;4953304;29;20163;-81
2024/02/15 06:53:49;;;;;;;20.08;6.00;;;;;;;;;;4953779;29;20487;-80
2024/02/15 06:56:16;;;;;;;24.50;6.40;;;;;;;;;;4953083;29;20039;-81
2024/02/15 06:58:43;;;;;;;15.90;5.50;;;;;;;;;;4953491;29;20047;-80
2024/02/15 07:01:10;;;;;;;15.90;5.00;;;;;;;;;;4953178;29;20047;-79
2024/02/15 07:03:39;;;;;;;21.33;5.75;;;;;;;;;;4953283;29;20133;-80
2024/02/15 07:06:06;;;;;;;20.30;5.53;;;;;;;;;;4953245;29;20174;-80
2024/02/15 07:08:33;;;;;;;14.52;4.50;;;;;;;;;;4956021;28;20043;-80
2024/02/15 07:11:01;;;;;;;20.55;5.45;;;;;;;;;;4955507;28;20039;-80
2024/02/15 07:13:28;;;;;;;23.30;5.82;;;;;;;;;;4955230;28;20125;-84
2024/02/15 07:15:55;;;;;;;21.30;5.07;;;;;;;;;;4968881;28;20039;-79
2024/02/15 07:18:22;;;;;;;16.05;5.15;;;;;;;;;;4948038;28;20600;-81
2024/02/15 07:20:56;;;;;;;23.15;6.10;;;;;;;;;;4953240;28;20051;-79
2024/02/15 07:23:25;;;;;;;20.67;5.38;;;;;;;;;;4953237;28;20051;-80
2024/02/15 07:25:53;;;;;;;16.38;4.85;;;;;;;;;;4954053;28;20537;-80
2024/02/15 07:28:20;;;;;;;20.50;5.20;;;;;;;;;;4954072;28;20051;-80
2024/02/15 07:30:50;;;;;;;16.40;5.82;;;;;;;;;;4954017;28;20558;-80
2024/02/15 07:33:17;;;;;;;16.27;5.90;;;;;;;;;;4954147;28;20114;-80
2024/02/15 07:35:44;;;;;;;26.38;7.57;;;;;;;;;;4954304;28;20051;-80
2024/02/15 07:38:11;;;;;;;34.25;9.68;;;;;;;;;;4953924;28;20066;-80
2024/02/15 07:40:39;;;;;;;28.70;9.57;;;;;;;;;;4954074;28;20505;-80
2024/02/15 07:43:06;;;;;;;23.70;7.17;;;;;;;;;;4953983;28;20039;-79
2024/02/15 07:45:36;;;;;;;30.20;6.47;;;;;;;;;;4968763;28;20283;-81
2024/02/15 07:48:04;;;;;;;24.73;5.03;;;;;;;;;;4954428;28;20390;-80
2024/02/15 07:50:31;;;;;;;25.98;6.03;;;;;;;;;;4953041;28;20704;-79
2024/02/15 07:52:58;;;;;;;20.60;5.60;;;;;;;;;;4954085;28;20139;-80
2024/02/15 07:55:25;;;;;;;26.00;6.20;;;;;;;;;;4953497;28;20378;-81
2024/02/15 07:57:52;;;;;;;23.85;5.82;;;;;;;;;;4954124;28;20039;-81
2024/02/15 08:00:19;;;;;;;19.33;5.50;;;;;;;;;;4953221;28;20039;-80
2024/02/15 08:02:47;;;;;;;21.65;6.13;;;;;;;;;;4954218;28;20434;-80
2024/02/15 08:05:14;;;;;;;19.58;5.63;;;;;;;;;;4953551;28;20363;-81
2024/02/15 08:07:44;;;;;;;22.23;6.13;;;;;;;;;;4954099;28;20356;-80
2024/02/15 08:10:14;;;;;;;22.38;5.85;;;;;;;;;;4978951;28;20042;-81
2024/02/15 08:12:44;;;;;;;25.85;6.30;;;;;;;;;;4992332;28;20481;-81
2024/02/15 08:15:12;;;;;;;21.20;6.40;;;;;;;;;;4992201;28;20057;-81
2024/02/15 08:17:46;;;;;;;19.75;6.25;;;;;;;;;;4992336;28;20386;-80
2024/02/15 08:20:14;;;;;;;25.02;6.72;;;;;;;;;;4992067;28;20128;-80
2024/02/15 08:22:43;;;;;;;28.23;6.47;;;;;;;;;;4992365;28;20038;-80
2024/02/15 08:25:12;;;;;;;18.70;5.97;;;;;;;;;;4990569;28;20431;-79
2024/02/15 08:27:42;;;;;;;31.60;7.07;;;;;;;;;;4992129;28;20137;-80
2024/02/15 08:30:14;;;;;;;25.05;6.20;;;;;;;;;;4991890;28;20385;-81
2024/02/15 08:32:41;;;;;;;19.77;7.78;;;;;;;;;;4992637;28;20137;-80
2024/02/15 08:35:11;;;;;;;23.70;6.55;;;;;;;;;;4991437;28;20371;-81
2024/02/15 08:37:39;;;;;;;30.45;8.32;;;;;;;;;;4992363;28;20134;-80
2024/02/15 08:40:10;;;;;;;28.50;9.38;;;;;;;;;;4991395;28;20046;-79
2024/02/15 08:42:39;;;;;;;23.48;8.05;;;;;;;;;;4992398;28;20492;-80
2024/02/15 08:45:08;;;;;;;20.70;7.00;;;;;;;;;;4991358;28;20065;-80
2024/02/15 08:47:37;;;;;;;31.27;7.00;;;;;;;;;;4993055;28;20393;-80
2024/02/15 08:50:05;;;;;;;20.83;7.18;;;;;;;;;;4975592;28;20106;-80
2024/02/15 08:52:32;;;;;;;26.58;6.53;;;;;;;;;;4975617;28;20046;-81
2024/02/15 08:55:00;;;;;;;29.25;7.18;;;;;;;;;;4993017;28;20042;-80
2024/02/15 08:57:27;;;;;;;31.75;6.55;;;;;;;;;;4992434;28;20046;-81
2024/02/15 08:59:54;;;;;;;23.20;7.07;;;;;;;;;;4975643;28;20477;-80
2024/02/15 09:02:21;;;;;;;29.48;7.72;;;;;;;;;;4994198;28;20109;-80
2024/02/15 09:04:48;;;;;;;28.27;6.88;;;;;;;;;;4995378;28;20056;-81
2024/02/15 09:07:15;;;;;;;24.70;6.45;;;;;;;;;;4996096;28;20042;-80
2024/02/15 09:09:42;;;;;;;24.55;7.05;;;;;;;;;;4996440;28;20039;-80
2024/02/15 09:12:08;;;;;;;24.40;7.45;;;;;;;;;;4996029;28;20042;-81
2024/02/15 09:14:38;;;;;;;25.48;8.40;;;;;;;;;;4996748;28;20043;-80
2024/02/15 09:17:08;;;;;;;25.55;6.22;;;;;;;;;;4996253;28;20465;-80
2024/02/15 09:19:35;;;;;;;30.58;6.90;;;;;;;;;;4996322;28;20053;-80
2024/02/15 09:22:06;;;;;;;22.83;6.60;;;;;;;;;;4996536;28;20129;-79
2024/02/15 09:24:33;;;;;;;27.67;6.88;;;;;;;;;;4995956;28;20051;-80
2024/02/15 09:27:01;;;;;;;24.77;6.25;;;;;;;;;;4996138;28;20512;-79
2024/02/15 09:29:35;;;;;;;19.83;5.90;;;;;;;;;;4994560;28;20133;-80
2024/02/15 09:32:02;;;;;;;25.73;5.55;;;;;;;;;;4996140;28;20085;-79
2024/02/15 09:34:29;;;;;;;29.42;6.25;;;;;;;;;;4995747;28;20034;-81
2024/02/15 09:36:56;;;;;;;17.73;5.47;;;;;;;;;;4995922;28;20042;-79
2024/02/15 09:39:23;;;;;;;30.10;5.45;;;;;;;;;;4995447;28;20046;-79
2024/02/15 09:41:55;;;;;;;20.65;5.30;;;;;;;;;;4995875;28;20477;-80
2024/02/15 09:44:22;;;;;;;18.65;5.95;;;;;;;;;;4995349;28;20039;-80
2024/02/15 09:47:04;;;;;;;26.15;12.48;;;;;;;;;;4995703;28;20047;-80
2024/02/15 09:49:39;;;;;;;52.25;28.00;;;;;;;;;;4995541;28;20389;-80
2024/02/15 09:52:11;;;;;;;45.13;22.17;;;;;;;;;;4995315;28;20100;-81
2024/02/15 09:54:43;;;;;;;30.70;9.68;;;;;;;;;;4995806;28;20051;-80
2024/02/15 09:57:11;;;;;;;30.90;8.05;;;;;;;;;;4995075;28;20049;-80
2024/02/15 09:59:38;;;;;;;35.05;6.32;;;;;;;;;;4995821;28;20117;-80
2024/02/15 10:02:10;;;;;;;23.17;5.07;;;;;;;;;;4978011;28;20038;-81
2024/02/15 10:04:39;;;;;;;22.38;5.50;;;;;;;;;;4994417;28;20042;-80
2024/02/15 10:07:08;;;;;;;22.48;6.28;;;;;;;;;;4994977;28;20081;-81
2024/02/15 10:09:42;;;;;;;31.98;6.72;;;;;;;;;;4995176;28;20046;-80
2024/02/15 10:12:09;;;;;;;23.88;5.75;;;;;;;;;;4994826;28;20045;-80
2024/02/15 10:14:36;;;;;;;26.85;5.93;;;;;;;;;;4994312;28;20504;-81
2024/02/15 10:17:09;;;;;;;23.73;5.70;;;;;;;;;;4994087;28;20046;-81
2024/02/15 10:19:37;;;;;;;23.55;6.43;;;;;;;;;;4994925;28;20053;-80
2024/02/15 10:22:09;;;;;;;25.55;5.88;;;;;;;;;;4994794;28;20051;-81
2024/02/15 10:24:36;;;;;;;20.63;6.78;;;;;;;;;;4994999;28;20038;-81
2024/02/15 10:27:06;;;;;;;23.50;5.90;;;;;;;;;;4994776;28;20101;-80
2024/02/15 10:29:33;;;;;;;22.17;5.90;;;;;;;;;;4995110;28;20137;-80
2024/02/15 10:32:02;;;;;;;30.48;6.10;;;;;;;;;;4995050;28;20046;-80
2024/02/15 10:34:30;;;;;;;29.05;5.78;;;;;;;;;;4994537;28;20493;-81
2024/02/15 10:37:16;;;;;;;29.92;6.20;;;;;;;;;;4994803;28;20054;-81
2024/02/15 10:39:43;;;;;;;26.27;5.63;;;;;;;;;;4994520;28;20054;-81
2024/02/15 10:42:11;;;;;;;28.42;6.68;;;;;;;;;;4994336;28;20053;-80
2024/02/15 10:44:40;;;;;;;28.13;6.32;;;;;;;;;;4994825;28;20042;-80
2024/02/15 10:47:08;;;;;;;25.42;7.85;;;;;;;;;;4994045;28;20093;-80
2024/02/15 10:49:36;;;;;;;30.15;7.35;;;;;;;;;;4994619;28;20047;-81
2024/02/15 10:52:04;;;;;;;24.25;6.03;;;;;;;;;;4994501;28;20046;-81
2024/02/15 10:54:37;;;;;;;24.40;6.53;;;;;;;;;;4994342;28;20042;-81
2024/02/15 10:57:05;;;;;;;24.83;5.55;;;;;;;;;;4994315;28;20439;-80
2024/02/15 10:59:37;;;;;;;30.38;6.00;;;;;;;;;;4994104;28;20043;-80
2024/02/15 11:02:34;;;;;;;31.95;6.03;;;;;;;;;;4993961;28;20041;-80
2024/02/15 11:05:06;;;;;;;27.40;6.50;;;;;;;;;;4993439;28;20042;-80
2024/02/15 11:07:33;;;;;;;28.52;7.57;;;;;;;;;;4993893;28;20046;-80
2024/02/15 11:10:01;;;;;;;35.65;6.72;;;;;;;;;;4994074;28;20046;-80
2024/02/15 11:12:28;;;;;;;25.08;6.10;;;;;;;;;;4993751;28;20053;-80
2024/02/15 11:14:55;;;;;;;24.75;5.75;;;;;;;;;;4994306;28;20038;-79
2024/02/15 11:17:37;;;;;;;25.27;5.45;;;;;;;;;;4993608;28;20046;-80
2024/02/15 11:20:09;;;;;;;29.08;5.25;;;;;;;;;;4993689;28;20145;-79
2024/02/15 11:22:36;;;;;;;24.30;5.57;;;;;;;;;;4977007;28;20050;-79
2024/02/15 11:25:12;;;;;;;28.70;5.78;;;;;;;;;;4993588;28;20054;-79
2024/02/15 11:27:41;;;;;;;26.20;5.57;;;;;;;;;;4993741;28;20050;-79
2024/02/15 11:30:20;;;;;;;31.08;6.35;;;;;;;;;;4993536;28;20050;-80
2024/02/15 11:32:56;;;;;;;28.30;6.40;;;;;;;;;;4994182;28;20396;-80
2024/02/15 11:35:24;;;;;;;32.60;6.75;;;;;;;;;;4993412;28;20050;-79
2024/02/15 11:37:54;;;;;;;21.23;5.82;;;;;;;;;;4993967;28;20133;-80
2024/02/15 11:40:43;;;;;;;25.50;5.47;;;;;;;;;;4993276;28;20049;-80
2024/02/15 11:43:58;;;;;;;22.27;5.70;;;;;;;;;;4986438;28;20088;-80
2024/02/15 11:46:30;;;;;;;17.02;5.68;;;;;;;;;;4992975;28;20038;-80
2024/02/15 11:48:58;;;;;;;25.85;6.63;;;;;;;;;;4993610;28;20046;-80
2024/02/15 11:51:36;;;;;;;25.17;6.07;;;;;;;;;;4993185;28;20046;-80
2024/02/15 11:54:10;;;;;;;27.55;6.82;;;;;;;;;;4992000;28;20060;-78
2024/02/15 12:19:21;;;;;;;21.92;6.53;;;;;;;;;;4969566;28;20050;-79
2024/02/15 12:21:49;;;;;;;21.40;5.97;;;;;;;;;;4970007;28;20494;-81
2024/02/15 12:24:17;;;;;;;26.88;6.78;;;;;;;;;;4968356;28;20051;-81
2024/02/15 12:26:44;;;;;;;19.05;5.93;;;;;;;;;;4959488;28;20532;-80
2024/02/15 12:29:12;;;;;;;26.52;6.38;;;;;;;;;;4969516;28;20394;-82
2024/02/15 12:31:39;;;;;;;27.45;6.70;;;;;;;;;;4959765;28;20098;-81
2024/02/15 12:34:08;;;;;;;19.02;6.30;;;;;;;;;;4951257;28;20052;-80
2024/02/15 12:36:37;;;;;;;26.80;6.43;;;;;;;;;;4967316;28;20051;-81
2024/02/15 12:39:14;;;;;;;24.08;6.78;;;;;;;;;;4977491;28;20046;-80
2024/02/15 12:41:48;;;;;;;29.55;6.25;;;;;;;;;;4994049;28;20062;-81
2024/02/15 12:44:20;;;;;;;20.83;6.13;;;;;;;;;;4994617;28;20054;-81
2024/02/15 12:46:47;;;;;;;24.90;6.40;;;;;;;;;;4995994;28;20116;-80
2024/02/15 12:49:34;;;;;;;23.20;6.63;;;;;;;;;;4995338;28;20129;-80
2024/02/15 12:52:33;;;;;;;20.77;5.93;;;;;;;;;;4996418;28;20129;-80
2024/02/15 12:55:14;;;;;;;26.55;5.47;;;;;;;;;;4996519;28;20433;-79
2024/02/15 12:57:44;;;;;;;25.88;5.97;;;;;;;;;;4996542;28;20046;-80
2024/02/15 13:00:18;;;;;;;23.77;5.68;;;;;;;;;;4996056;28;20050;-80
2024/02/15 13:02:47;;;;;;;24.85;5.57;;;;;;;;;;4996899;28;20413;-80
2024/02/15 13:05:14;;;;;;;15.88;4.93;;;;;;;;;;4996117;28;20056;-78
2024/02/15 13:07:40;;;;;;;19.20;4.95;;;;;;;;;;4996673;28;20485;-78
2024/02/15 13:10:08;;;;;;;21.27;5.32;;;;;;;;;;4996052;28;20083;-80
2024/02/15 13:12:35;;;;;;;19.25;5.32;;;;;;;;;;4996621;28;20043;-78
2024/02/15 13:15:11;;;;;;;18.73;5.10;;;;;;;;;;4996572;28;20046;-79
2024/02/15 13:17:38;;;;;;;17.02;5.18;;;;;;;;;;4996035;28;20046;-78
2024/02/15 13:20:10;;;;;;;15.82;4.45;;;;;;;;;;4996011;28;20043;-79
2024/02/15 13:22:38;;;;;;;23.10;5.07;;;;;;;;;;4979151;28;20058;-79
2024/02/15 13:25:09;;;;;;;23.48;5.55;;;;;;;;;;4995590;28;20038;-79
2024/02/15 13:27:38;;;;;;;21.38;5.30;;;;;;;;;;4996172;28;20474;-78
2024/02/15 13:30:09;;;;;;;13.93;5.10;;;;;;;;;;4996201;28;20041;-79
2024/02/15 13:32:37;;;;;;;20.92;5.53;;;;;;;;;;4995770;28;20050;-79
2024/02/15 13:35:12;;;;;;;25.27;5.07;;;;;;;;;;4995850;28;20042;-79
2024/02/15 13:37:46;;;;;;;17.40;4.70;;;;;;;;;;4995753;28;20070;-79
2024/02/15 13:40:16;;;;;;;20.38;5.35;;;;;;;;;;4994523;28;20046;-79
2024/02/15 13:42:49;;;;;;;22.20;5.05;;;;;;;;;;4995925;28;20042;-78
2024/02/15 13:45:16;;;;;;;19.30;5.50;;;;;;;;;;4995526;28;20085;-79
2024/02/15 13:47:47;;;;;;;20.90;6.10;;;;;;;;;;4995273;28;20057;-78
2024/02/15 13:50:14;;;;;;;28.25;6.32;;;;;;;;;;4994865;28;20085;-79
2024/02/15 13:52:45;;;;;;;22.15;6.40;;;;;;;;;;4995917;28;20061;-79
2024/02/15 13:55:18;;;;;;;16.48;5.03;;;;;;;;;;4995277;28;20051;-79
2024/02/15 13:57:47;;;;;;;20.63;5.60;;;;;;;;;;4995730;28;20042;-78
2024/02/15 14:00:29;;;;;;;20.77;6.22;;;;;;;;;;4995087;28;20053;-79
2024/02/15 14:02:58;;;;;;;23.42;5.72;;;;;;;;;;4995580;28;20074;-79
2024/02/15 14:05:28;;;;;;;;;;;;;;;;;;4995446;28;20074;-79
2024/02/15 14:08:00;;;;;;;15.32;5.15;;;;;;;;;;4996332;28;19921;-79
2024/02/15 14:10:36;;;;;;;26.60;6.30;;;;;;;;;;4995020;28;20042;-80
2024/02/15 14:13:11;;;;;;;28.45;6.57;;;;;;;;;;4995487;28;20050;-79
2024/02/15 14:15:38;;;;;;;23.88;7.07;;;;;;;;;;4995149;28;20415;-79
2024/02/15 14:18:10;;;;;;;23.98;6.40;;;;;;;;;;4994836;28;20050;-80
2024/02/15 14:20:38;;;;;;;28.30;7.05;;;;;;;;;;4995348;28;20042;-78
2024/02/15 14:23:05;;;;;;;28.02;7.13;;;;;;;;;;4977509;28;20438;-79
2024/02/15 14:25:33;;;;;;;28.70;6.93;;;;;;;;;;4993685;28;20470;-78
2024/02/15 14:28:02;;;;;;;26.38;7.03;;;;;;;;;;4995283;28;20051;-79
2024/02/15 14:33:15;;;;;;;28.90;7.22;;;;;;;;;;4994535;28;20050;-79
2024/02/15 14:35:45;;;;;;;23.85;6.25;;;;;;;;;;4995137;28;20046;-79
2024/02/15 14:38:13;;;;;;;32.33;6.22;;;;;;;;;;4994480;28;20046;-79
2024/02/15 14:40:42;;;;;;;31.08;6.53;;;;;;;;;;4977528;28;20478;-79
2024/02/15 14:43:12;;;;;;;22.23;6.47;;;;;;;;;;4994616;28;20442;-79
2024/02/15 14:45:45;;;;;;;35.33;7.57;;;;;;;;;;4978169;28;20137;-79
2024/02/15 14:48:12;;;;;;;30.00;6.25;;;;;;;;;;4994325;28;20039;-79
2024/02/15 14:50:40;;;;;;;;;;;;;;;;;;4995039;28;20605;-79
2024/02/15 14:53:10;;;;;;;30.92;6.28;;;;;;;;;;4994137;28;20372;-79
2024/02/15 14:55:42;;;;;;;32.05;5.93;;;;;;;;;;4994575;28;20053;-80
2024/02/15 14:58:09;;;;;;;25.58;5.72;;;;;;;;;;4994119;28;20058;-80
2024/02/15 15:00:41;;;;;;;27.15;6.07;;;;;;;;;;4994235;28;20057;-79
2024/02/15 15:03:09;;;;;;;24.50;5.97;;;;;;;;;;4993886;28;20050;-80
2024/02/15 15:13:52;;;;;;;33.38;6.88;;;;;;;;;;4994307;28;20065;-81
2024/02/15 15:16:20;;;;;;;26.08;5.88;;;;;;;;;;4993506;28;20046;-79
2024/02/15 15:18:48;;;;;;;29.55;6.00;;;;;;;;;;4993399;28;20034;-80
2024/02/15 15:21:19;;;;;;;28.52;5.90;;;;;;;;;;4993453;28;20041;-80
2024/02/15 15:23:46;;;;;;;22.00;5.40;;;;;;;;;;4973927;28;20042;-79
2024/02/15 15:26:21;;;;;;;21.33;4.90;;;;;;;;;;4993028;28;20049;-80
2024/02/15 15:28:49;;;;;;;20.48;5.32;;;;;;;;;;4991423;28;20038;-81